sensor_id;sensor_type;location;lat;lon;timestamp;P1;durP1;ratioP1;P2;durP2;ratioP2
73697;SDS011;62004;42.566;23.164;2023-02-01T00:01:37;62.63;;;57.60;;
73697;SDS011;62004;42.566;23.164;2023-02-01T00:04:02;61.10;;;56.33;;
73697;SDS011;62004;42.566;23.164;2023-02-01T00:06:27;61.60;;;56.70;;
73697;SDS011;62004;42.566;23.164;2023-02-01T00:08:53;68.67;;;62.47;;
73697;SDS011;62004;42.566;23.164;2023-02-01T00:11:19;68.57;;;63.13;;
73697;SDS011;62004;42.566;23.164;2023-02-01T00:13:44;68.10;;;62.47;;
73697;SDS011;62004;42.566;23.164;2023-02-01T00:16:10;66.47;;;60.83;;
73697;SDS011;62004;42.566;23.164;2023-02-01T00:18:41;72.57;;;66.82;;
73697;SDS011;62004;42.566;23.164;2023-02-01T00:21:06;72.22;;;66.25;;
73697;SDS011;62004;42.566;23.164;2023-02-01T00:23:32;72.67;;;66.57;;
73697;SDS011;62004;42.566;23.164;2023-02-01T00:26:00;69.18;;;63.53;;
73697;SDS011;62004;42.566;23.164;2023-02-01T00:28:25;68.13;;;62.47;;
73697;SDS011;62004;42.566;23.164;2023-02-01T00:30:57;69.93;;;64.17;;
73697;SDS011;62004;42.566;23.164;2023-02-01T00:33:22;68.03;;;62.20;;
73697;SDS011;62004;42.566;23.164;2023-02-01T00:35:47;66.47;;;60.72;;
73697;SDS011;62004;42.566;23.164;2023-02-01T00:38:13;65.00;;;59.80;;
73697;SDS011;62004;42.566;23.164;2023-02-01T00:40:38;63.83;;;58.90;;
73697;SDS011;62004;42.566;23.164;2023-02-01T00:43:03;63.30;;;58.07;;
73697;SDS011;62004;42.566;23.164;2023-02-01T00:45:28;63.93;;;58.93;;
73697;SDS011;62004;42.566;23.164;2023-02-01T00:47:54;65.37;;;60.13;;
73697;SDS011;62004;42.566;23.164;2023-02-01T00:50:19;64.13;;;59.20;;
73697;SDS011;62004;42.566;23.164;2023-02-01T00:52:44;66.93;;;61.70;;
73697;SDS011;62004;42.566;23.164;2023-02-01T00:55:09;64.50;;;59.50;;
73697;SDS011;62004;42.566;23.164;2023-02-01T00:57:35;64.07;;;59.00;;
73697;SDS011;62004;42.566;23.164;2023-02-01T01:00:00;61.90;;;56.97;;
73697;SDS011;62004;42.566;23.164;2023-02-01T01:07:35;65.28;;;60.15;;
73697;SDS011;62004;42.566;23.164;2023-02-01T01:10:00;63.57;;;58.47;;
73697;SDS011;62004;42.566;23.164;2023-02-01T01:12:26;63.50;;;58.60;;
73697;SDS011;62004;42.566;23.164;2023-02-01T01:14:51;66.30;;;61.10;;
73697;SDS011;62004;42.566;23.164;2023-02-01T01:17:16;68.57;;;63.30;;
73697;SDS011;62004;42.566;23.164;2023-02-01T01:19:41;67.37;;;62.07;;
73697;SDS011;62004;42.566;23.164;2023-02-01T01:22:07;65.40;;;60.27;;
73697;SDS011;62004;42.566;23.164;2023-02-01T01:24:32;65.03;;;60.03;;
73697;SDS011;62004;42.566;23.164;2023-02-01T01:26:57;63.13;;;58.37;;
73697;SDS011;62004;42.566;23.164;2023-02-01T01:29:22;64.90;;;59.80;;
73697;SDS011;62004;42.566;23.164;2023-02-01T01:31:48;64.07;;;59.17;;
73697;SDS011;62004;42.566;23.164;2023-02-01T01:34:13;67.57;;;62.13;;
73697;SDS011;62004;42.566;23.164;2023-02-01T01:36:38;65.07;;;60.10;;
73697;SDS011;62004;42.566;23.164;2023-02-01T01:39:03;60.47;;;55.80;;
73697;SDS011;62004;42.566;23.164;2023-02-01T01:41:30;64.53;;;59.33;;
73697;SDS011;62004;42.566;23.164;2023-02-01T01:43:57;67.75;;;62.53;;
73697;SDS011;62004;42.566;23.164;2023-02-01T01:46:27;65.93;;;60.92;;
73697;SDS011;62004;42.566;23.164;2023-02-01T01:51:24;64.35;;;59.50;;
73697;SDS011;62004;42.566;23.164;2023-02-01T01:54:25;63.10;;;58.20;;
73697;SDS011;62004;42.566;23.164;2023-02-01T01:56:42;67.35;;;62.25;;
73697;SDS011;62004;42.566;23.164;2023-02-01T01:59:08;66.70;;;61.67;;
73697;SDS011;62004;42.566;23.164;2023-02-01T02:01:33;64.38;;;59.53;;
73697;SDS011;62004;42.566;23.164;2023-02-01T02:03:59;66.10;;;61.17;;
73697;SDS011;62004;42.566;23.164;2023-02-01T02:08:49;68.93;;;63.80;;
73697;SDS011;62004;42.566;23.164;2023-02-01T02:11:16;72.10;;;66.47;;
73697;SDS011;62004;42.566;23.164;2023-02-01T02:13:42;68.80;;;63.60;;
73697;SDS011;62004;42.566;23.164;2023-02-01T02:31:53;67.72;;;62.78;;
73697;SDS011;62004;42.566;23.164;2023-02-01T02:34:34;68.13;;;63.13;;
73697;SDS011;62004;42.566;23.164;2023-02-01T02:37:10;77.13;;;71.43;;
73697;SDS011;62004;42.566;23.164;2023-02-01T02:53:19;69.82;;;64.47;;
73697;SDS011;62004;42.566;23.164;2023-02-01T02:56:05;67.05;;;62.05;;
73697;SDS011;62004;42.566;23.164;2023-02-01T02:58:49;66.40;;;61.42;;
73697;SDS011;62004;42.566;23.164;2023-02-01T03:01:34;74.45;;;68.95;;
73697;SDS011;62004;42.566;23.164;2023-02-01T03:04:18;83.28;;;76.88;;
73697;SDS011;62004;42.566;23.164;2023-02-01T03:06:44;74.45;;;69.07;;
73697;SDS011;62004;42.566;23.164;2023-02-01T03:09:12;75.10;;;69.55;;
73697;SDS011;62004;42.566;23.164;2023-02-01T03:11:38;77.20;;;71.45;;
73697;SDS011;62004;42.566;23.164;2023-02-01T03:14:22;80.07;;;73.80;;
73697;SDS011;62004;42.566;23.164;2023-02-01T03:16:51;68.40;;;63.33;;
73697;SDS011;62004;42.566;23.164;2023-02-01T03:21:50;87.93;;;81.63;;
73697;SDS011;62004;42.566;23.164;2023-02-01T03:26:44;87.77;;;81.30;;
73697;SDS011;62004;42.566;23.164;2023-02-01T03:29:14;80.40;;;74.63;;
73697;SDS011;62004;42.566;23.164;2023-02-01T03:31:41;80.30;;;74.40;;
73697;SDS011;62004;42.566;23.164;2023-02-01T03:34:06;76.50;;;71.00;;
73697;SDS011;62004;42.566;23.164;2023-02-01T03:36:39;78.10;;;72.30;;
73697;SDS011;62004;42.566;23.164;2023-02-01T03:39:07;77.30;;;71.57;;
73697;SDS011;62004;42.566;23.164;2023-02-01T03:41:40;72.80;;;67.38;;
73697;SDS011;62004;42.566;23.164;2023-02-01T03:44:13;72.97;;;67.38;;
73697;SDS011;62004;42.566;23.164;2023-02-01T03:46:48;73.38;;;67.72;;
73697;SDS011;62004;42.566;23.164;2023-02-01T03:49:17;67.47;;;62.42;;
73697;SDS011;62004;42.566;23.164;2023-02-01T03:51:43;64.70;;;59.80;;
73697;SDS011;62004;42.566;23.164;2023-02-01T03:54:09;63.08;;;58.38;;
73697;SDS011;62004;42.566;23.164;2023-02-01T03:56:36;64.53;;;59.42;;
73697;SDS011;62004;42.566;23.164;2023-02-01T03:59:02;63.58;;;58.78;;
73697;SDS011;62004;42.566;23.164;2023-02-01T04:01:28;61.85;;;57.03;;
73697;SDS011;62004;42.566;23.164;2023-02-01T04:03:54;64.40;;;59.47;;
73697;SDS011;62004;42.566;23.164;2023-02-01T04:06:20;62.72;;;57.70;;
73697;SDS011;62004;42.566;23.164;2023-02-01T04:08:45;68.88;;;63.58;;
73697;SDS011;62004;42.566;23.164;2023-02-01T04:11:10;65.30;;;60.00;;
73697;SDS011;62004;42.566;23.164;2023-02-01T04:13:35;66.23;;;61.23;;
73697;SDS011;62004;42.566;23.164;2023-02-01T04:16:01;63.00;;;58.20;;
73697;SDS011;62004;42.566;23.164;2023-02-01T04:18:26;61.43;;;56.83;;
73697;SDS011;62004;42.566;23.164;2023-02-01T04:20:51;61.60;;;56.90;;
73697;SDS011;62004;42.566;23.164;2023-02-01T04:23:16;62.70;;;57.83;;
73697;SDS011;62004;42.566;23.164;2023-02-01T04:25:42;63.00;;;57.90;;
73697;SDS011;62004;42.566;23.164;2023-02-01T04:28:07;60.73;;;56.23;;
73697;SDS011;62004;42.566;23.164;2023-02-01T04:30:32;60.17;;;55.63;;
73697;SDS011;62004;42.566;23.164;2023-02-01T04:32:58;63.83;;;58.92;;
73697;SDS011;62004;42.566;23.164;2023-02-01T04:35:23;61.27;;;56.47;;
73697;SDS011;62004;42.566;23.164;2023-02-01T04:37:48;60.75;;;56.17;;
73697;SDS011;62004;42.566;23.164;2023-02-01T04:40:13;60.70;;;56.00;;
73697;SDS011;62004;42.566;23.164;2023-02-01T04:42:39;59.90;;;55.40;;
73697;SDS011;62004;42.566;23.164;2023-02-01T04:45:04;60.57;;;55.87;;
73697;SDS011;62004;42.566;23.164;2023-02-01T04:47:29;62.10;;;57.38;;
73697;SDS011;62004;42.566;23.164;2023-02-01T04:49:55;60.22;;;55.53;;
73697;SDS011;62004;42.566;23.164;2023-02-01T04:52:20;67.53;;;62.27;;
73697;SDS011;62004;42.566;23.164;2023-02-01T04:54:45;61.57;;;56.87;;
73697;SDS011;62004;42.566;23.164;2023-02-01T04:57:10;64.17;;;59.10;;
73697;SDS011;62004;42.566;23.164;2023-02-01T04:59:38;62.40;;;57.65;;
73697;SDS011;62004;42.566;23.164;2023-02-01T05:02:03;56.72;;;52.40;;
73697;SDS011;62004;42.566;23.164;2023-02-01T05:04:28;57.03;;;52.73;;
73697;SDS011;62004;42.566;23.164;2023-02-01T05:06:54;60.23;;;55.40;;
73697;SDS011;62004;42.566;23.164;2023-02-01T05:09:19;60.23;;;55.27;;
73697;SDS011;62004;42.566;23.164;2023-02-01T05:11:46;60.15;;;55.15;;
73697;SDS011;62004;42.566;23.164;2023-02-01T05:14:30;57.60;;;53.20;;
73697;SDS011;62004;42.566;23.164;2023-02-01T05:16:55;56.87;;;52.47;;
73697;SDS011;62004;42.566;23.164;2023-02-01T05:19:20;56.53;;;52.10;;
73697;SDS011;62004;42.566;23.164;2023-02-01T05:21:45;57.80;;;53.23;;
73697;SDS011;62004;42.566;23.164;2023-02-01T05:24:11;58.35;;;53.85;;
73697;SDS011;62004;42.566;23.164;2023-02-01T05:29:06;58.70;;;54.13;;
73697;SDS011;62004;42.566;23.164;2023-02-01T05:31:32;60.60;;;55.88;;
73697;SDS011;62004;42.566;23.164;2023-02-01T05:33:57;60.10;;;55.47;;
73697;SDS011;62004;42.566;23.164;2023-02-01T05:36:22;62.50;;;57.50;;
73697;SDS011;62004;42.566;23.164;2023-02-01T05:38:48;60.00;;;55.30;;
73697;SDS011;62004;42.566;23.164;2023-02-01T05:41:13;58.53;;;53.97;;
73697;SDS011;62004;42.566;23.164;2023-02-01T05:43:38;58.47;;;53.67;;
73697;SDS011;62004;42.566;23.164;2023-02-01T05:46:04;68.88;;;63.30;;
73697;SDS011;62004;42.566;23.164;2023-02-01T05:48:29;63.60;;;58.35;;
73697;SDS011;62004;42.566;23.164;2023-02-01T05:50:54;60.37;;;55.40;;
73697;SDS011;62004;42.566;23.164;2023-02-01T05:53:19;58.97;;;54.43;;
73697;SDS011;62004;42.566;23.164;2023-02-01T05:55:45;58.70;;;54.17;;
73697;SDS011;62004;42.566;23.164;2023-02-01T05:58:10;59.17;;;54.57;;
73697;SDS011;62004;42.566;23.164;2023-02-01T06:00:35;57.88;;;53.08;;
73697;SDS011;62004;42.566;23.164;2023-02-01T06:03:00;56.80;;;52.27;;
73697;SDS011;62004;42.566;23.164;2023-02-01T06:05:26;57.58;;;52.95;;
73697;SDS011;62004;42.566;23.164;2023-02-01T06:07:52;58.83;;;54.28;;
73697;SDS011;62004;42.566;23.164;2023-02-01T06:10:17;58.30;;;53.20;;
73697;SDS011;62004;42.566;23.164;2023-02-01T06:12:43;56.50;;;52.17;;
73697;SDS011;62004;42.566;23.164;2023-02-01T06:15:09;54.72;;;50.45;;
73697;SDS011;62004;42.566;23.164;2023-02-01T06:17:35;52.38;;;48.17;;
73697;SDS011;62004;42.566;23.164;2023-02-01T06:20:00;52.70;;;48.50;;
73697;SDS011;62004;42.566;23.164;2023-02-01T06:22:25;51.47;;;47.27;;
73697;SDS011;62004;42.566;23.164;2023-02-01T06:24:50;50.17;;;46.30;;
73697;SDS011;62004;42.566;23.164;2023-02-01T06:27:16;47.97;;;44.10;;
73697;SDS011;62004;42.566;23.164;2023-02-01T06:29:41;48.83;;;44.87;;
73697;SDS011;62004;42.566;23.164;2023-02-01T06:32:06;49.90;;;45.83;;
73697;SDS011;62004;42.566;23.164;2023-02-01T06:34:31;49.13;;;45.33;;
73697;SDS011;62004;42.566;23.164;2023-02-01T06:36:57;50.95;;;46.72;;
73697;SDS011;62004;42.566;23.164;2023-02-01T06:39:22;51.73;;;47.50;;
73697;SDS011;62004;42.566;23.164;2023-02-01T06:41:48;49.08;;;45.17;;
73697;SDS011;62004;42.566;23.164;2023-02-01T06:44:13;50.40;;;46.25;;
73697;SDS011;62004;42.566;23.164;2023-02-01T06:46:39;50.70;;;46.47;;
73697;SDS011;62004;42.566;23.164;2023-02-01T06:49:04;49.17;;;44.70;;
73697;SDS011;62004;42.566;23.164;2023-02-01T06:51:30;56.07;;;51.53;;
73697;SDS011;62004;42.566;23.164;2023-02-01T06:53:55;53.35;;;48.55;;
73697;SDS011;62004;42.566;23.164;2023-02-01T06:56:21;52.70;;;48.08;;
73697;SDS011;62004;42.566;23.164;2023-02-01T06:58:46;51.00;;;46.78;;
73697;SDS011;62004;42.566;23.164;2023-02-01T07:01:11;52.20;;;47.73;;
73697;SDS011;62004;42.566;23.164;2023-02-01T07:03:37;74.18;;;68.03;;
73697;SDS011;62004;42.566;23.164;2023-02-01T07:06:02;59.15;;;54.10;;
73697;SDS011;62004;42.566;23.164;2023-02-01T07:08:29;58.30;;;53.33;;
73697;SDS011;62004;42.566;23.164;2023-02-01T07:10:55;55.08;;;50.20;;
73697;SDS011;62004;42.566;23.164;2023-02-01T07:13:20;58.83;;;54.05;;
73697;SDS011;62004;42.566;23.164;2023-02-01T07:15:45;56.17;;;51.23;;
73697;SDS011;62004;42.566;23.164;2023-02-01T07:18:14;58.38;;;53.40;;
73697;SDS011;62004;42.566;23.164;2023-02-01T07:20:39;52.97;;;48.58;;
73697;SDS011;62004;42.566;23.164;2023-02-01T07:23:05;52.25;;;47.92;;
73697;SDS011;62004;42.566;23.164;2023-02-01T07:25:30;54.50;;;49.87;;
73697;SDS011;62004;42.566;23.164;2023-02-01T07:27:55;51.67;;;47.23;;
73697;SDS011;62004;42.566;23.164;2023-02-01T07:30:20;49.10;;;45.17;;
73697;SDS011;62004;42.566;23.164;2023-02-01T07:32:46;51.97;;;47.53;;
73697;SDS011;62004;42.566;23.164;2023-02-01T07:35:11;50.67;;;46.53;;
73697;SDS011;62004;42.566;23.164;2023-02-01T07:37:36;49.90;;;45.43;;
73697;SDS011;62004;42.566;23.164;2023-02-01T07:40:01;48.13;;;44.27;;
73697;SDS011;62004;42.566;23.164;2023-02-01T07:42:27;46.83;;;42.92;;
73697;SDS011;62004;42.566;23.164;2023-02-01T07:44:52;48.63;;;44.60;;
73697;SDS011;62004;42.566;23.164;2023-02-01T07:47:17;55.50;;;50.93;;
73697;SDS011;62004;42.566;23.164;2023-02-01T07:49:43;52.87;;;48.33;;
73697;SDS011;62004;42.566;23.164;2023-02-01T07:52:08;49.13;;;45.17;;
73697;SDS011;62004;42.566;23.164;2023-02-01T07:54:33;49.63;;;45.47;;
73697;SDS011;62004;42.566;23.164;2023-02-01T07:56:58;48.43;;;44.33;;
73697;SDS011;62004;42.566;23.164;2023-02-01T07:59:23;51.47;;;47.33;;
73697;SDS011;62004;42.566;23.164;2023-02-01T08:01:49;57.73;;;52.40;;
73697;SDS011;62004;42.566;23.164;2023-02-01T08:04:14;54.43;;;49.67;;
73697;SDS011;62004;42.566;23.164;2023-02-01T08:06:39;54.70;;;50.10;;
73697;SDS011;62004;42.566;23.164;2023-02-01T08:09:05;56.27;;;51.30;;
73697;SDS011;62004;42.566;23.164;2023-02-01T08:11:30;53.42;;;49.00;;
73697;SDS011;62004;42.566;23.164;2023-02-01T08:13:56;52.72;;;48.17;;
73697;SDS011;62004;42.566;23.164;2023-02-01T08:16:21;50.87;;;46.70;;
73697;SDS011;62004;42.566;23.164;2023-02-01T08:18:48;48.55;;;44.50;;
73697;SDS011;62004;42.566;23.164;2023-02-01T08:21:14;48.17;;;44.03;;
73697;SDS011;62004;42.566;23.164;2023-02-01T08:23:40;48.83;;;44.47;;
73697;SDS011;62004;42.566;23.164;2023-02-01T08:26:07;53.20;;;48.67;;
73697;SDS011;62004;42.566;23.164;2023-02-01T08:28:32;54.00;;;49.33;;
73697;SDS011;62004;42.566;23.164;2023-02-01T08:30:58;52.63;;;48.03;;
73697;SDS011;62004;42.566;23.164;2023-02-01T08:33:23;50.47;;;46.40;;
73697;SDS011;62004;42.566;23.164;2023-02-01T08:35:48;47.27;;;43.10;;
73697;SDS011;62004;42.566;23.164;2023-02-01T08:38:13;45.00;;;41.28;;
73697;SDS011;62004;42.566;23.164;2023-02-01T08:40:39;45.37;;;41.20;;
73697;SDS011;62004;42.566;23.164;2023-02-01T08:43:06;54.92;;;50.22;;
73697;SDS011;62004;42.566;23.164;2023-02-01T08:45:31;52.58;;;48.10;;
73697;SDS011;62004;42.566;23.164;2023-02-01T08:47:57;50.03;;;45.63;;
73697;SDS011;62004;42.566;23.164;2023-02-01T08:50:22;48.10;;;44.08;;
73697;SDS011;62004;42.566;23.164;2023-02-01T08:52:48;50.42;;;46.15;;
73697;SDS011;62004;42.566;23.164;2023-02-01T08:55:14;47.22;;;43.35;;
73697;SDS011;62004;42.566;23.164;2023-02-01T08:57:39;49.92;;;45.50;;
73697;SDS011;62004;42.566;23.164;2023-02-01T09:00:06;48.42;;;44.35;;
73697;SDS011;62004;42.566;23.164;2023-02-01T09:02:31;46.33;;;42.42;;
73697;SDS011;62004;42.566;23.164;2023-02-01T09:04:57;44.77;;;40.77;;
73697;SDS011;62004;42.566;23.164;2023-02-01T09:07:22;48.13;;;43.72;;
73697;SDS011;62004;42.566;23.164;2023-02-01T09:09:47;45.90;;;41.72;;
73697;SDS011;62004;42.566;23.164;2023-02-01T09:12:13;41.10;;;37.67;;
73697;SDS011;62004;42.566;23.164;2023-02-01T09:14:38;43.23;;;39.57;;
73697;SDS011;62004;42.566;23.164;2023-02-01T09:17:03;43.72;;;40.03;;
73697;SDS011;62004;42.566;23.164;2023-02-01T09:19:30;43.33;;;39.60;;
73697;SDS011;62004;42.566;23.164;2023-02-01T09:21:55;44.97;;;41.08;;
73697;SDS011;62004;42.566;23.164;2023-02-01T09:24:21;45.47;;;41.53;;
73697;SDS011;62004;42.566;23.164;2023-02-01T09:26:46;47.90;;;43.80;;
73697;SDS011;62004;42.566;23.164;2023-02-01T09:29:11;45.53;;;41.73;;
73697;SDS011;62004;42.566;23.164;2023-02-01T09:31:36;42.90;;;39.27;;
73697;SDS011;62004;42.566;23.164;2023-02-01T09:34:02;39.60;;;36.05;;
73697;SDS011;62004;42.566;23.164;2023-02-01T09:36:28;37.30;;;34.40;;
73697;SDS011;62004;42.566;23.164;2023-02-01T09:38:53;36.22;;;33.35;;
73697;SDS011;62004;42.566;23.164;2023-02-01T09:44:06;42.55;;;38.70;;
73697;SDS011;62004;42.566;23.164;2023-02-01T09:46:33;42.90;;;38.97;;
73697;SDS011;62004;42.566;23.164;2023-02-01T09:49:13;41.25;;;37.60;;
73697;SDS011;62004;42.566;23.164;2023-02-01T09:51:42;40.42;;;37.05;;
73697;SDS011;62004;42.566;23.164;2023-02-01T09:54:25;39.00;;;35.75;;
73697;SDS011;62004;42.566;23.164;2023-02-01T10:01:56;35.80;;;32.92;;
73697;SDS011;62004;42.566;23.164;2023-02-01T10:04:24;36.40;;;33.38;;
73697;SDS011;62004;42.566;23.164;2023-02-01T10:06:53;35.28;;;32.60;;
73697;SDS011;62004;42.566;23.164;2023-02-01T10:17:24;37.30;;;34.20;;
73697;SDS011;62004;42.566;23.164;2023-02-01T10:22:32;31.88;;;29.42;;
73697;SDS011;62004;42.566;23.164;2023-02-01T10:25:03;31.23;;;28.88;;
73697;SDS011;62004;42.566;23.164;2023-02-01T10:27:33;34.13;;;31.38;;
73697;SDS011;62004;42.566;23.164;2023-02-01T10:29:59;32.10;;;29.52;;
73697;SDS011;62004;42.566;23.164;2023-02-01T10:32:31;32.72;;;30.20;;
73697;SDS011;62004;42.566;23.164;2023-02-01T10:34:58;31.95;;;29.15;;
73697;SDS011;62004;42.566;23.164;2023-02-01T10:39:52;32.13;;;29.63;;
73697;SDS011;62004;42.566;23.164;2023-02-01T10:42:18;31.80;;;29.52;;
73697;SDS011;62004;42.566;23.164;2023-02-01T10:44:45;34.83;;;32.20;;
73697;SDS011;62004;42.566;23.164;2023-02-01T10:47:13;33.30;;;30.67;;
73697;SDS011;62004;42.566;23.164;2023-02-01T10:49:39;33.55;;;31.08;;
73697;SDS011;62004;42.566;23.164;2023-02-01T10:52:12;34.45;;;31.90;;
73697;SDS011;62004;42.566;23.164;2023-02-01T10:54:39;31.67;;;29.27;;
73697;SDS011;62004;42.566;23.164;2023-02-01T10:57:08;33.00;;;30.55;;
73697;SDS011;62004;42.566;23.164;2023-02-01T10:59:33;31.98;;;29.55;;
73697;SDS011;62004;42.566;23.164;2023-02-01T11:02:02;36.45;;;33.70;;
73697;SDS011;62004;42.566;23.164;2023-02-01T11:04:32;33.85;;;31.20;;
73697;SDS011;62004;42.566;23.164;2023-02-01T11:09:33;34.53;;;31.77;;
73697;SDS011;62004;42.566;23.164;2023-02-01T11:12:00;34.75;;;31.90;;
73697;SDS011;62004;42.566;23.164;2023-02-01T11:14:26;32.08;;;29.42;;
73697;SDS011;62004;42.566;23.164;2023-02-01T11:16:53;36.50;;;33.35;;
73697;SDS011;62004;42.566;23.164;2023-02-01T11:19:19;37.35;;;34.28;;
73697;SDS011;62004;42.566;23.164;2023-02-01T11:21:44;35.00;;;32.28;;
73697;SDS011;62004;42.566;23.164;2023-02-01T11:24:19;40.90;;;37.45;;
73697;SDS011;62004;42.566;23.164;2023-02-01T11:26:47;39.00;;;35.85;;
73697;SDS011;62004;42.566;23.164;2023-02-01T11:29:13;40.78;;;37.42;;
73697;SDS011;62004;42.566;23.164;2023-02-01T11:31:39;37.47;;;34.33;;
73697;SDS011;62004;42.566;23.164;2023-02-01T11:34:32;34.80;;;32.15;;
73697;SDS011;62004;42.566;23.164;2023-02-01T11:36:53;31.70;;;29.35;;
73697;SDS011;62004;42.566;23.164;2023-02-01T11:39:24;28.77;;;26.80;;
73697;SDS011;62004;42.566;23.164;2023-02-01T11:42:00;29.58;;;27.15;;
73697;SDS011;62004;42.566;23.164;2023-02-01T11:44:34;29.75;;;27.55;;
73697;SDS011;62004;42.566;23.164;2023-02-01T11:49:58;30.50;;;28.27;;
73697;SDS011;62004;42.566;23.164;2023-02-01T12:00:30;36.22;;;33.08;;
73697;SDS011;62004;42.566;23.164;2023-02-01T12:03:08;34.13;;;31.38;;
73697;SDS011;62004;42.566;23.164;2023-02-01T12:05:59;35.17;;;32.28;;
73697;SDS011;62004;42.566;23.164;2023-02-01T12:08:29;33.63;;;31.15;;
73697;SDS011;62004;42.566;23.164;2023-02-01T12:23:55;32.53;;;30.08;;
73697;SDS011;62004;42.566;23.164;2023-02-01T12:39:33;22.60;;;21.10;;
73697;SDS011;62004;42.566;23.164;2023-02-01T12:42:08;23.45;;;21.90;;
73697;SDS011;62004;42.566;23.164;2023-02-01T12:47:13;22.60;;;20.98;;
73697;SDS011;62004;42.566;23.164;2023-02-01T12:49:45;18.85;;;17.38;;
73697;SDS011;62004;42.566;23.164;2023-02-01T12:52:14;24.00;;;22.00;;
73697;SDS011;62004;42.566;23.164;2023-02-01T12:54:42;22.48;;;20.42;;
73697;SDS011;62004;42.566;23.164;2023-02-01T12:57:12;19.88;;;18.52;;
73697;SDS011;62004;42.566;23.164;2023-02-01T12:59:39;20.40;;;18.92;;
73697;SDS011;62004;42.566;23.164;2023-02-01T13:04:53;26.30;;;24.40;;
73697;SDS011;62004;42.566;23.164;2023-02-01T13:07:21;28.60;;;26.35;;
73697;SDS011;62004;42.566;23.164;2023-02-01T13:10:34;27.08;;;25.10;;
73697;SDS011;62004;42.566;23.164;2023-02-01T13:12:40;28.42;;;26.02;;
73697;SDS011;62004;42.566;23.164;2023-02-01T13:18:02;26.13;;;24.23;;
73697;SDS011;62004;42.566;23.164;2023-02-01T13:23:34;32.53;;;29.98;;
73697;SDS011;62004;42.566;23.164;2023-02-01T13:26:00;28.08;;;25.92;;
73697;SDS011;62004;42.566;23.164;2023-02-01T13:33:28;22.67;;;21.23;;
73697;SDS011;62004;42.566;23.164;2023-02-01T13:43:39;30.60;;;28.25;;
73697;SDS011;62004;42.566;23.164;2023-02-01T13:46:07;28.67;;;26.52;;
73697;SDS011;62004;42.566;23.164;2023-02-01T13:48:38;31.42;;;28.98;;
73697;SDS011;62004;42.566;23.164;2023-02-01T13:51:04;34.15;;;31.52;;
73697;SDS011;62004;42.566;23.164;2023-02-01T13:53:33;37.93;;;34.73;;
73697;SDS011;62004;42.566;23.164;2023-02-01T13:56:02;35.47;;;32.42;;
73697;SDS011;62004;42.566;23.164;2023-02-01T13:58:29;35.88;;;32.92;;
73697;SDS011;62004;42.566;23.164;2023-02-01T14:03:42;34.83;;;31.98;;
73697;SDS011;62004;42.566;23.164;2023-02-01T14:09:16;34.45;;;31.80;;
73697;SDS011;62004;42.566;23.164;2023-02-01T14:16:38;25.17;;;23.40;;
73697;SDS011;62004;42.566;23.164;2023-02-01T14:19:06;25.20;;;23.50;;
73697;SDS011;62004;42.566;23.164;2023-02-01T14:21:46;25.50;;;23.77;;
73697;SDS011;62004;42.566;23.164;2023-02-01T14:24:30;22.88;;;21.25;;
73697;SDS011;62004;42.566;23.164;2023-02-01T14:26:57;24.10;;;22.33;;
73697;SDS011;62004;42.566;23.164;2023-02-01T14:29:39;25.27;;;23.45;;
73697;SDS011;62004;42.566;23.164;2023-02-01T14:42:21;29.38;;;27.15;;
73697;SDS011;62004;42.566;23.164;2023-02-01T14:44:47;28.48;;;26.45;;
73697;SDS011;62004;42.566;23.164;2023-02-01T14:52:37;40.65;;;36.80;;
73697;SDS011;62004;42.566;23.164;2023-02-01T14:55:32;44.03;;;40.03;;
73697;SDS011;62004;42.566;23.164;2023-02-01T14:57:53;43.20;;;39.35;;
73697;SDS011;62004;42.566;23.164;2023-02-01T15:00:25;37.63;;;34.47;;
73697;SDS011;62004;42.566;23.164;2023-02-01T15:05:28;421.67;;;182.17;;
73697;SDS011;62004;42.566;23.164;2023-02-01T15:07:55;50.97;;;45.85;;
73697;SDS011;62004;42.566;23.164;2023-02-01T15:10:22;38.92;;;35.72;;
73697;SDS011;62004;42.566;23.164;2023-02-01T15:12:48;43.42;;;39.40;;
73697;SDS011;62004;42.566;23.164;2023-02-01T15:15:21;44.08;;;40.03;;
73697;SDS011;62004;42.566;23.164;2023-02-01T15:20:16;41.20;;;37.55;;
73697;SDS011;62004;42.566;23.164;2023-02-01T15:22:42;45.83;;;41.47;;
73697;SDS011;62004;42.566;23.164;2023-02-01T15:25:35;43.78;;;39.85;;
73697;SDS011;62004;42.566;23.164;2023-02-01T15:28:02;40.47;;;36.90;;
73697;SDS011;62004;42.566;23.164;2023-02-01T15:30:28;40.50;;;36.70;;
73697;SDS011;62004;42.566;23.164;2023-02-01T15:33:07;47.30;;;42.65;;
73697;SDS011;62004;42.566;23.164;2023-02-01T15:35:37;52.22;;;46.90;;
73697;SDS011;62004;42.566;23.164;2023-02-01T15:40:54;45.97;;;41.50;;
73697;SDS011;62004;42.566;23.164;2023-02-01T15:43:19;45.30;;;40.92;;
73697;SDS011;62004;42.566;23.164;2023-02-01T15:45:45;42.45;;;38.40;;
73697;SDS011;62004;42.566;23.164;2023-02-01T15:48:11;48.85;;;44.17;;
73697;SDS011;62004;42.566;23.164;2023-02-01T15:50:39;44.10;;;39.80;;
73697;SDS011;62004;42.566;23.164;2023-02-01T15:53:05;40.75;;;37.13;;
73697;SDS011;62004;42.566;23.164;2023-02-01T15:55:39;46.78;;;42.47;;
73697;SDS011;62004;42.566;23.164;2023-02-01T15:58:07;48.42;;;43.65;;
73697;SDS011;62004;42.566;23.164;2023-02-01T16:00:39;54.70;;;49.47;;
73697;SDS011;62004;42.566;23.164;2023-02-01T16:03:20;48.03;;;43.25;;
73697;SDS011;62004;42.566;23.164;2023-02-01T16:05:53;45.47;;;41.28;;
73697;SDS011;62004;42.566;23.164;2023-02-01T16:08:22;44.35;;;40.17;;
73697;SDS011;62004;42.566;23.164;2023-02-01T16:10:49;47.38;;;42.90;;
73697;SDS011;62004;42.566;23.164;2023-02-01T16:13:15;42.88;;;38.75;;
73697;SDS011;62004;42.566;23.164;2023-02-01T16:15:41;42.08;;;38.45;;
73697;SDS011;62004;42.566;23.164;2023-02-01T16:18:07;40.05;;;36.65;;
73697;SDS011;62004;42.566;23.164;2023-02-01T16:20:36;41.00;;;37.58;;
73697;SDS011;62004;42.566;23.164;2023-02-01T16:23:02;39.88;;;36.45;;
73697;SDS011;62004;42.566;23.164;2023-02-01T16:25:28;41.85;;;38.30;;
73697;SDS011;62004;42.566;23.164;2023-02-01T16:27:53;37.80;;;34.78;;
73697;SDS011;62004;42.566;23.164;2023-02-01T16:30:18;38.22;;;35.17;;
73697;SDS011;62004;42.566;23.164;2023-02-01T16:32:48;37.78;;;34.72;;
73697;SDS011;62004;42.566;23.164;2023-02-01T16:35:20;38.40;;;35.28;;
73697;SDS011;62004;42.566;23.164;2023-02-01T16:37:45;36.33;;;33.35;;
73697;SDS011;62004;42.566;23.164;2023-02-01T16:40:15;35.40;;;32.57;;
73697;SDS011;62004;42.566;23.164;2023-02-01T16:42:40;36.45;;;33.50;;
73697;SDS011;62004;42.566;23.164;2023-02-01T16:45:06;50.22;;;45.85;;
73697;SDS011;62004;42.566;23.164;2023-02-01T16:47:32;47.55;;;43.22;;
73697;SDS011;62004;42.566;23.164;2023-02-01T16:49:58;48.70;;;44.10;;
73697;SDS011;62004;42.566;23.164;2023-02-01T16:52:24;48.20;;;43.87;;
73697;SDS011;62004;42.566;23.164;2023-02-01T16:54:50;45.67;;;41.50;;
73697;SDS011;62004;42.566;23.164;2023-02-01T16:57:16;42.80;;;38.97;;